San Beato — HBLC — position and weather

sailwx.info

Track history (hours):
 
Tides and Currents Weather Stations Pressure Air Temp Water Temp Dewpoint Dewpoint Depression Visibility Wind Speed Wind Dir Waves Ship Positions

San Beato

Last reported at 2018-Feb-19 01:36 UTC. Time now 2018-Feb-19 08:29 UTC.
Position N 39°41' W 009°57'.

Length 110 m; draft 6.3 m.

Type: Tanker. MMSI: 269032000.

Date/timePositionNaut miles runAvg speedWind from/ knotsBaromVisibWave heightAir tempDewpointWater temp
2018-Feb-19 01:36N 39°41' W 009°57'310.5
2018-Feb-19 01:18N 39°38' W 009°57'710.5
2018-Feb-19 00:39N 39°31' W 009°57'210.4
2018-Feb-19 00:30N 39°30' W 009°57'5 9.9
2018-Feb-19 00:01N 39°25' W 009°57'510.1
2018-Feb-18 23:31N 39°20' W 009°57'510.4
2018-Feb-18 22:59N 39°15' W 009°58'510.3
2018-Feb-18 22:30N 39°10' W 009°59'5 9.8
2018-Feb-18 22:01N 39°05' W 009°57'510.0
2018-Feb-18 21:30N 38°60' W 009°57'5 9.8
2018-Feb-18 21:01N 38°55' W 009°57'5 9.8
2018-Feb-18 20:30N 38°50' W 009°57'510.0
2018-Feb-18 20:00N 38°45' W 009°57'5 9.8
2018-Feb-18 19:30N 38°40' W 009°56'5 9.7
2018-Feb-18 19:00N 38°36' W 009°55'5 9.8
2018-Feb-18 18:30N 38°31' W 009°53'5 9.6
2018-Feb-18 18:01N 38°26' W 009°52'5 9.9
2018-Feb-18 17:30N 38°21' W 009°51'510.0
2018-Feb-18 17:00N 38°16' W 009°50'5 9.7
2018-Feb-18 16:31N 38°12' W 009°48'5 9.7
2018-Feb-18 16:00N 38°07' W 009°47'5 9.9
2018-Feb-18 15:30N 38°02' W 009°45'1510.1
2018-Feb-18 14:04N 37°48' W 009°41'1 9.8
2018-Feb-18 14:00N 37°47' W 009°41'810.0
2018-Feb-18 13:10N 37°39' W 009°38'610.2
2018-Feb-18 12:37N 37°34' W 009°36'210.0
2018-Feb-18 12:27N 37°32' W 009°36'510.0
2018-Feb-18 11:57N 37°27' W 009°34'1410.4
2018-Feb-18 10:35N 37°13' W 009°31'110.4
2018-Feb-18 10:29N 37°12' W 009°31'1310.2
2018-Feb-18 09:13N 36°60' W 009°27'210.3
2018-Feb-18 09:00N 36°58' W 009°26'  
Track history (hours):
 
Tides and Currents Weather Stations Pressure Air Temp Water Temp Dewpoint Dewpoint Depression Visibility Wind Speed Wind Dir Waves Ship Positions

San Beato

Last reported at 2018-Feb-19 01:36 UTC. Time now 2018-Feb-19 08:29 UTC.
Position N 39°41' W 009°57'.

Length 110 m; draft 6.3 m.

Type: Tanker. MMSI: 269032000.

Date/timePositionNaut miles runAvg speedWind from/ knotsBaromVisibWave heightAir tempDewpointWater temp
2018-Feb-19 01:36N 39°41' W 009°57'310.5
2018-Feb-19 01:18N 39°38' W 009°57'710.5
2018-Feb-19 00:39N 39°31' W 009°57'210.4
2018-Feb-19 00:30N 39°30' W 009°57'5 9.9
2018-Feb-19 00:01N 39°25' W 009°57'510.1
2018-Feb-18 23:31N 39°20' W 009°57'510.4
2018-Feb-18 22:59N 39°15' W 009°58'510.3
2018-Feb-18 22:30N 39°10' W 009°59'5 9.8
2018-Feb-18 22:01N 39°05' W 009°57'510.0
2018-Feb-18 21:30N 38°60' W 009°57'5 9.8
2018-Feb-18 21:01N 38°55' W 009°57'5 9.8
2018-Feb-18 20:30N 38°50' W 009°57'510.0
2018-Feb-18 20:00N 38°45' W 009°57'5 9.8
2018-Feb-18 19:30N 38°40' W 009°56'5 9.7
2018-Feb-18 19:00N 38°36' W 009°55'5 9.8
2018-Feb-18 18:30N 38°31' W 009°53'5 9.6
2018-Feb-18 18:01N 38°26' W 009°52'5 9.9
2018-Feb-18 17:30N 38°21' W 009°51'510.0
2018-Feb-18 17:00N 38°16' W 009°50'5 9.7
2018-Feb-18 16:31N 38°12' W 009°48'5 9.7
2018-Feb-18 16:00N 38°07' W 009°47'5 9.9
2018-Feb-18 15:30N 38°02' W 009°45'1510.1
2018-Feb-18 14:04N 37°48' W 009°41'1 9.8
2018-Feb-18 14:00N 37°47' W 009°41'810.0
2018-Feb-18 13:10N 37°39' W 009°38'610.2
2018-Feb-18 12:37N 37°34' W 009°36'210.0
2018-Feb-18 12:27N 37°32' W 009°36'510.0
2018-Feb-18 11:57N 37°27' W 009°34'1410.4
2018-Feb-18 10:35N 37°13' W 009°31'110.4
2018-Feb-18 10:29N 37°12' W 009°31'1310.2
2018-Feb-18 09:13N 36°60' W 009°27'210.3
2018-Feb-18 09:00N 36°58' W 009°26'  

Dump ship's entire track history